Time;durP1;ratioP1;P1;durP2;ratioP2;P2;SDS_P1;SDS_P2;PMS_P1;PMS_P2;Temp;Humidity;BMP_temperature;BMP_pressure;BME280_temperature;BME280_humidity;BME280_pressure;Samples;Min_cycle;Max_cycle;Signal;HPM_P1;HPM_P2
2021/06/24 00:00:39;;;;;;;8.03;5.37;;;;;;;;;;5035212;28;20444;-62
2021/06/24 00:03:06;;;;;;;7.67;5.70;;;;;;;;;;5035238;28;20495;-62
2021/06/24 00:05:33;;;;;;;7.33;5.63;;;;;;;;;;5035480;28;20858;-62
2021/06/24 00:08:00;;;;;;;8.47;5.80;;;;;;;;;;5034704;28;20456;-62
2021/06/24 00:10:28;;;;;;;6.40;4.80;;;;;;;;;;5033276;28;20865;-62
2021/06/24 00:12:55;;;;;;;10.90;6.40;;;;;;;;;;5032925;28;20477;-63
2021/06/24 00:15:24;;;;;;;6.37;4.77;;;;;;;;;;5034603;28;20502;-62
2021/06/24 00:17:51;;;;;;;8.40;5.37;;;;;;;;;;5033406;28;20523;-62
2021/06/24 00:20:18;;;;;;;8.27;5.43;;;;;;;;;;5033497;28;20511;-62
2021/06/24 00:22:46;;;;;;;8.90;5.10;;;;;;;;;;5033462;28;20445;-63
2021/06/24 00:25:14;;;;;;;12.20;5.70;;;;;;;;;;5037337;28;20448;-61
2021/06/24 00:27:42;;;;;;;10.93;5.80;;;;;;;;;;5037539;28;21034;-61
2021/06/24 00:30:10;;;;;;;10.10;6.17;;;;;;;;;;5037234;28;20448;-61
2021/06/24 00:32:38;;;;;;;5.43;4.77;;;;;;;;;;5036949;28;20472;-61
2021/06/24 00:35:06;;;;;;;11.73;5.00;;;;;;;;;;5037218;28;20457;-61
2021/06/24 00:37:35;;;;;;;9.80;5.40;;;;;;;;;;5036896;28;20972;-61
2021/06/24 00:40:02;;;;;;;6.20;4.90;;;;;;;;;;5037347;28;20527;-62
2021/06/24 00:42:30;;;;;;;9.17;5.67;;;;;;;;;;5037138;28;20952;-61
2021/06/24 00:44:57;;;;;;;7.90;5.63;;;;;;;;;;5037579;28;20448;-61
2021/06/24 00:47:25;;;;;;;10.50;5.10;;;;;;;;;;5037542;28;20863;-61
2021/06/24 00:49:54;;;;;;;12.20;5.20;;;;;;;;;;5037310;28;20831;-61
2021/06/24 00:52:21;;;;;;;10.70;5.50;;;;;;;;;;5036796;28;20449;-62
2021/06/24 00:54:48;;;;;;;10.50;5.30;;;;;;;;;;5036731;28;20441;-61
2021/06/24 00:57:16;;;;;;;5.80;4.90;;;;;;;;;;5036513;28;20488;-61
2021/06/24 00:59:43;;;;;;;8.63;5.73;;;;;;;;;;5036784;28;20967;-61
2021/06/24 01:02:10;;;;;;;7.97;5.30;;;;;;;;;;5037845;28;20865;-61
2021/06/24 01:04:38;;;;;;;9.80;5.33;;;;;;;;;;5039394;28;20455;-61
2021/06/24 01:07:07;;;;;;;11.93;6.50;;;;;;;;;;5036634;28;20465;-62
2021/06/24 01:09:35;;;;;;;9.63;5.10;;;;;;;;;;5036625;28;20449;-62
2021/06/24 01:12:03;;;;;;;7.97;5.63;;;;;;;;;;5036597;28;20503;-62
2021/06/24 01:14:30;;;;;;;7.00;6.27;;;;;;;;;;5036107;28;20907;-62
2021/06/24 01:16:58;;;;;;;7.73;5.63;;;;;;;;;;5036022;28;20813;-62
2021/06/24 01:19:25;;;;;;;7.67;5.77;;;;;;;;;;5036164;28;20944;-62
2021/06/24 01:21:52;;;;;;;7.67;6.17;;;;;;;;;;5036182;28;20441;-61
2021/06/24 01:24:22;;;;;;;11.67;5.37;;;;;;;;;;5035981;28;20949;-62
2021/06/24 01:26:49;;;;;;;6.20;5.30;;;;;;;;;;5035911;28;20524;-62
2021/06/24 01:29:17;;;;;;;7.87;5.93;;;;;;;;;;5036144;28;20471;-61
2021/06/24 01:31:44;;;;;;;7.33;5.73;;;;;;;;;;5035854;28;20953;-62
2021/06/24 01:34:12;;;;;;;8.17;6.23;;;;;;;;;;5035749;28;20594;-62
2021/06/24 01:36:39;;;;;;;13.93;6.80;;;;;;;;;;5035295;28;20835;-62
2021/06/24 01:39:09;;;;;;;10.30;6.37;;;;;;;;;;5035987;28;20452;-62
2021/06/24 01:41:37;;;;;;;9.50;7.07;;;;;;;;;;5035932;28;20445;-62
2021/06/24 01:44:05;;;;;;;9.70;7.00;;;;;;;;;;5035577;28;20445;-61
2021/06/24 01:46:32;;;;;;;12.77;7.57;;;;;;;;;;5035526;28;20437;-62
2021/06/24 01:49:00;;;;;;;8.37;7.47;;;;;;;;;;5035813;28;20449;-62
2021/06/24 01:51:27;;;;;;;11.10;7.20;;;;;;;;;;5035789;28;20449;-62
2021/06/24 01:53:54;;;;;;;11.23;7.33;;;;;;;;;;5035699;28;20480;-62
2021/06/24 01:56:22;;;;;;;10.83;7.30;;;;;;;;;;5035664;28;20559;-62
2021/06/24 01:58:50;;;;;;;9.50;7.10;;;;;;;;;;5035349;28;20814;-61
2021/06/24 02:01:17;;;;;;;7.83;7.03;;;;;;;;;;5035593;28;20499;-62
2021/06/24 02:03:45;;;;;;;11.50;7.23;;;;;;;;;;5035189;28;20449;-62
2021/06/24 02:06:13;;;;;;;9.30;6.90;;;;;;;;;;5035631;28;20460;-62
2021/06/24 02:08:40;;;;;;;9.63;6.97;;;;;;;;;;5035129;28;20483;-62
2021/06/24 02:11:07;;;;;;;10.97;6.90;;;;;;;;;;5035107;28;20452;-62
2021/06/24 02:13:34;;;;;;;8.23;7.40;;;;;;;;;;5034917;28;20485;-62
2021/06/24 02:16:03;;;;;;;11.70;7.00;;;;;;;;;;5035430;28;20502;-62
2021/06/24 02:18:30;;;;;;;9.97;6.90;;;;;;;;;;5035349;28;20476;-62
2021/06/24 02:20:58;;;;;;;15.40;8.60;;;;;;;;;;5034927;28;21002;-62
2021/06/24 02:23:25;;;;;;;9.70;7.70;;;;;;;;;;5035205;28;20441;-61
2021/06/24 02:25:52;;;;;;;9.77;6.97;;;;;;;;;;5035250;28;20453;-62
2021/06/24 02:28:20;;;;;;;9.70;7.37;;;;;;;;;;5035090;28;20588;-62
2021/06/24 02:30:47;;;;;;;11.20;8.07;;;;;;;;;;5035126;28;20453;-62
2021/06/24 02:33:18;;;;;;;12.33;7.57;;;;;;;;;;5034836;28;20524;-63
2021/06/24 02:35:48;;;;;;;10.10;8.20;;;;;;;;;;5035114;28;20519;-62
2021/06/24 02:38:15;;;;;;;9.53;7.77;;;;;;;;;;5034560;28;20526;-62
2021/06/24 02:40:43;;;;;;;13.13;8.27;;;;;;;;;;5034628;28;20837;-62
2021/06/24 02:43:10;;;;;;;14.00;8.27;;;;;;;;;;5034556;28;20929;-62
2021/06/24 02:45:39;;;;;;;9.50;7.50;;;;;;;;;;5034481;28;20441;-62
2021/06/24 02:48:07;;;;;;;13.57;7.57;;;;;;;;;;5034040;28;20500;-62
2021/06/24 02:50:36;;;;;;;12.03;7.30;;;;;;;;;;5034776;28;20445;-62
2021/06/24 02:53:03;;;;;;;8.60;7.70;;;;;;;;;;5035191;28;20457;-62
2021/06/24 02:55:31;;;;;;;8.40;7.40;;;;;;;;;;5034314;28;20856;-62
2021/06/24 02:57:58;;;;;;;8.07;7.37;;;;;;;;;;5034121;28;20487;-62
2021/06/24 03:00:26;;;;;;;8.97;7.00;;;;;;;;;;5034589;28;20495;-62
2021/06/24 03:02:54;;;;;;;9.70;7.90;;;;;;;;;;5034191;28;20468;-62
2021/06/24 03:05:21;;;;;;;8.30;7.27;;;;;;;;;;5034220;28;20945;-62
2021/06/24 03:07:50;;;;;;;9.23;6.57;;;;;;;;;;5034312;28;20477;-62
2021/06/24 03:10:20;;;;;;;11.23;7.47;;;;;;;;;;5034826;28;20457;-62
2021/06/24 03:12:47;;;;;;;10.43;6.43;;;;;;;;;;5035395;28;20453;-63
2021/06/24 03:15:15;;;;;;;12.00;6.87;;;;;;;;;;5037443;28;20477;-61
2021/06/24 03:17:42;;;;;;;10.37;7.50;;;;;;;;;;5037801;28;20534;-61
2021/06/24 03:20:11;;;;;;;9.07;7.27;;;;;;;;;;5038018;28;20449;-62
2021/06/24 03:22:38;;;;;;;8.47;6.67;;;;;;;;;;5038330;28;20480;-62
2021/06/24 03:25:08;;;;;;;8.87;6.83;;;;;;;;;;5036531;28;20441;-62
2021/06/24 03:27:35;;;;;;;10.77;7.33;;;;;;;;;;5034957;28;20461;-62
2021/06/24 03:30:03;;;;;;;13.10;7.57;;;;;;;;;;5034073;28;20449;-62
2021/06/24 03:32:30;;;;;;;9.73;6.97;;;;;;;;;;5034444;28;20519;-62
2021/06/24 03:34:57;;;;;;;9.77;6.83;;;;;;;;;;5033432;28;20820;-62
2021/06/24 03:37:25;;;;;;;7.20;6.40;;;;;;;;;;5033542;28;20468;-62
2021/06/24 03:39:52;;;;;;;14.80;7.60;;;;;;;;;;5033738;28;20948;-62
2021/06/24 03:42:20;;;;;;;12.27;7.10;;;;;;;;;;5034056;28;20533;-62
2021/06/24 03:44:49;;;;;;;9.20;6.20;;;;;;;;;;5033684;28;20441;-61
2021/06/24 03:47:16;;;;;;;10.80;6.90;;;;;;;;;;5033379;28;20508;-62
2021/06/24 03:49:43;;;;;;;11.73;7.33;;;;;;;;;;5033632;28;20571;-62
2021/06/24 03:52:11;;;;;;;9.33;6.80;;;;;;;;;;5034296;28;20453;-62
2021/06/24 03:54:38;;;;;;;8.90;7.20;;;;;;;;;;5035091;28;21046;-62
2021/06/24 03:57:05;;;;;;;11.40;6.70;;;;;;;;;;5036045;28;20487;-60
2021/06/24 03:59:34;;;;;;;10.60;6.40;;;;;;;;;;5035701;28;20453;-62
2021/06/24 04:02:03;;;;;;;10.20;7.20;;;;;;;;;;5034210;28;20449;-62
2021/06/24 04:04:30;;;;;;;8.90;7.07;;;;;;;;;;5033072;28;20452;-63
2021/06/24 04:08:15;;;;;;;10.20;7.13;;;;;;;;;;5112372;27;20593;-61
2021/06/24 04:10:43;;;;;;;10.60;6.60;;;;;;;;;;5111871;28;20452;-63
2021/06/24 04:13:10;;;;;;;10.50;6.73;;;;;;;;;;5112704;28;20445;-62
2021/06/24 04:15:37;;;;;;;10.50;7.10;;;;;;;;;;5112514;28;20453;-60
2021/06/24 04:18:05;;;;;;;11.17;6.67;;;;;;;;;;5111791;28;20466;-62
2021/06/24 04:20:33;;;;;;;11.67;7.40;;;;;;;;;;5111557;28;20460;-61
2021/06/24 04:23:00;;;;;;;10.60;6.90;;;;;;;;;;5111675;28;20446;-62
2021/06/24 04:25:29;;;;;;;9.10;6.67;;;;;;;;;;5111316;28;20490;-61
2021/06/24 04:27:58;;;;;;;11.63;8.33;;;;;;;;;;5111417;28;20537;-62
2021/06/24 04:30:27;;;;;;;8.77;7.87;;;;;;;;;;5110933;28;20460;-61
2021/06/24 04:32:54;;;;;;;12.37;7.40;;;;;;;;;;5110865;28;20477;-60
2021/06/24 04:35:22;;;;;;;9.97;7.20;;;;;;;;;;5110883;28;20929;-62
2021/06/24 04:37:49;;;;;;;9.53;7.17;;;;;;;;;;5110741;28;20457;-61
2021/06/24 04:40:17;;;;;;;8.83;7.20;;;;;;;;;;5111023;28;20518;-62
2021/06/24 04:42:46;;;;;;;9.33;6.87;;;;;;;;;;5110985;28;20446;-62
2021/06/24 04:45:14;;;;;;;9.77;8.03;;;;;;;;;;5111049;28;20499;-62
2021/06/24 04:47:41;;;;;;;8.07;6.40;;;;;;;;;;5110477;28;20534;-61
2021/06/24 04:50:09;;;;;;;9.13;7.47;;;;;;;;;;5110692;28;20493;-62
2021/06/24 04:52:36;;;;;;;7.47;6.70;;;;;;;;;;5111006;28;20442;-63
2021/06/24 04:55:04;;;;;;;11.23;8.00;;;;;;;;;;5110316;28;20997;-63
2021/06/24 04:57:31;;;;;;;10.60;7.10;;;;;;;;;;5116450;22;20564;-57
2021/06/24 05:00:00;;;;;;;12.67;8.13;;;;;;;;;;5049676;28;20424;-58
2021/06/24 05:02:27;;;;;;;10.13;7.50;;;;;;;;;;5049166;28;20450;-58
2021/06/24 05:04:55;;;;;;;11.10;7.40;;;;;;;;;;5049505;28;20490;-57
2021/06/24 05:07:22;;;;;;;8.83;7.00;;;;;;;;;;5049326;28;20494;-58
2021/06/24 05:09:50;;;;;;;9.13;6.50;;;;;;;;;;5049443;28;20451;-58
2021/06/24 05:12:17;;;;;;;11.23;7.87;;;;;;;;;;5050005;28;20566;-58
2021/06/24 05:14:44;;;;;;;15.10;7.70;;;;;;;;;;5049736;28;20440;-58
2021/06/24 05:17:15;;;;;;;8.13;7.20;;;;;;;;;;5049203;28;20444;-58
2021/06/24 05:19:43;;;;;;;8.87;7.03;;;;;;;;;;5035422;28;20429;-58
2021/06/24 05:22:11;;;;;;;10.20;7.23;;;;;;;;;;5035936;28;20441;-58
2021/06/24 05:24:38;;;;;;;8.10;7.30;;;;;;;;;;5035683;28;20829;-58
2021/06/24 05:27:06;;;;;;;13.60;7.70;;;;;;;;;;5035605;28;20484;-57
2021/06/24 05:29:33;;;;;;;11.27;7.60;;;;;;;;;;5035794;28;20448;-57
2021/06/24 05:32:00;;;;;;;9.90;7.80;;;;;;;;;;5035683;28;20449;-57
2021/06/24 05:34:30;;;;;;;8.30;6.70;;;;;;;;;;5035470;28;20452;-56
2021/06/24 05:36:57;;;;;;;8.60;7.27;;;;;;;;;;5035773;28;20540;-58
2021/06/24 05:39:25;;;;;;;7.87;7.07;;;;;;;;;;5035314;28;20515;-57
2021/06/24 05:41:56;;;;;;;8.97;6.60;;;;;;;;;;5035407;28;20445;-57
2021/06/24 05:44:23;;;;;;;8.20;6.90;;;;;;;;;;5035403;28;20436;-58
2021/06/24 05:46:50;;;;;;;9.10;6.80;;;;;;;;;;5035350;28;20895;-57
2021/06/24 05:49:18;;;;;;;12.40;7.00;;;;;;;;;;5035040;28;20905;-57
2021/06/24 05:51:46;;;;;;;10.60;7.03;;;;;;;;;;5035340;28;20948;-58
2021/06/24 05:54:14;;;;;;;9.83;6.90;;;;;;;;;;5035085;28;20453;-56
2021/06/24 05:56:41;;;;;;;9.50;7.40;;;;;;;;;;5035148;28;20437;-56
2021/06/24 05:59:09;;;;;;;7.73;6.80;;;;;;;;;;5034550;28;20897;-57
2021/06/24 06:01:40;;;;;;;9.67;7.23;;;;;;;;;;5035030;28;20464;-56
2021/06/24 06:04:07;;;;;;;12.27;6.93;;;;;;;;;;5034589;28;20529;-56
2021/06/24 06:06:34;;;;;;;11.33;6.43;;;;;;;;;;5034616;28;20441;-57
2021/06/24 06:09:03;;;;;;;9.07;7.23;;;;;;;;;;5034641;28;20473;-57
2021/06/24 06:11:31;;;;;;;10.33;7.33;;;;;;;;;;5035051;28;20865;-58
2021/06/24 06:13:58;;;;;;;8.67;6.57;;;;;;;;;;5034508;28;20444;-58
2021/06/24 06:16:27;;;;;;;10.47;7.50;;;;;;;;;;5035164;28;20503;-57
2021/06/24 06:18:54;;;;;;;12.27;6.90;;;;;;;;;;5034637;28;20468;-57
2021/06/24 06:21:22;;;;;;;7.67;6.67;;;;;;;;;;5034444;28;20825;-57
2021/06/24 06:23:49;;;;;;;8.47;7.20;;;;;;;;;;5034651;28;20826;-56
2021/06/24 06:26:17;;;;;;;9.63;7.60;;;;;;;;;;5035280;28;20457;-57
2021/06/24 06:28:45;;;;;;;10.77;7.00;;;;;;;;;;5034365;28;20481;-57
2021/06/24 06:31:12;;;;;;;10.37;6.60;;;;;;;;;;5034032;28;20465;-57
2021/06/24 06:33:39;;;;;;;12.50;7.03;;;;;;;;;;5034084;28;21011;-57
2021/06/24 06:36:06;;;;;;;10.40;7.50;;;;;;;;;;5034409;28;20786;-57
2021/06/24 06:38:34;;;;;;;7.20;6.50;;;;;;;;;;5033965;28;20834;-58
2021/06/24 06:41:01;;;;;;;13.47;9.33;;;;;;;;;;5034319;28;20445;-57
2021/06/24 06:43:30;;;;;;;11.60;7.63;;;;;;;;;;5034374;28;20461;-57
2021/06/24 06:45:57;;;;;;;11.10;9.00;;;;;;;;;;5033969;28;20441;-57
2021/06/24 06:48:24;;;;;;;12.40;7.10;;;;;;;;;;5034170;28;20480;-57
2021/06/24 06:50:51;;;;;;;8.53;7.50;;;;;;;;;;5035049;28;20768;-57
2021/06/24 06:53:19;;;;;;;9.07;7.40;;;;;;;;;;5033808;28;20441;-57
2021/06/24 06:55:46;;;;;;;8.70;7.37;;;;;;;;;;5033730;28;20515;-57
2021/06/24 06:58:13;;;;;;;8.63;7.20;;;;;;;;;;5033216;28;20513;-56
2021/06/24 07:00:42;;;;;;;8.20;7.30;;;;;;;;;;5033777;28;20453;-57
2021/06/24 07:03:09;;;;;;;10.90;7.57;;;;;;;;;;5033935;28;20449;-58
2021/06/24 07:05:37;;;;;;;10.20;7.83;;;;;;;;;;5033800;28;20515;-58
2021/06/24 07:08:04;;;;;;;9.47;8.10;;;;;;;;;;5033326;28;20506;-57
2021/06/24 07:10:32;;;;;;;11.60;7.30;;;;;;;;;;5033791;28;20532;-56
2021/06/24 07:12:59;;;;;;;12.43;7.80;;;;;;;;;;5034042;28;20461;-57
2021/06/24 07:15:26;;;;;;;12.30;7.40;;;;;;;;;;5033730;28;20445;-57
2021/06/24 07:17:55;;;;;;;10.10;8.17;;;;;;;;;;5033337;28;20465;-57
2021/06/24 07:20:22;;;;;;;10.10;7.53;;;;;;;;;;5033258;28;20868;-57
2021/06/24 07:22:49;;;;;;;15.00;7.70;;;;;;;;;;5033280;28;20941;-57
2021/06/24 07:25:18;;;;;;;8.93;8.03;;;;;;;;;;5033129;28;20441;-57
2021/06/24 07:27:46;;;;;;;8.87;7.40;;;;;;;;;;5033331;28;20489;-57
2021/06/24 07:30:14;;;;;;;9.10;7.00;;;;;;;;;;5033172;28;21012;-58
2021/06/24 07:32:41;;;;;;;9.47;7.90;;;;;;;;;;5033361;28;20639;-58
2021/06/24 07:35:11;;;;;;;9.63;8.53;;;;;;;;;;5033138;28;20457;-58
2021/06/24 07:37:38;;;;;;;9.70;7.13;;;;;;;;;;5033198;28;20457;-57
2021/06/24 07:40:06;;;;;;;8.53;7.00;;;;;;;;;;5033021;28;20451;-56
2021/06/24 07:42:33;;;;;;;12.83;8.10;;;;;;;;;;5032564;28;20957;-56
2021/06/24 07:45:01;;;;;;;11.30;8.37;;;;;;;;;;5032945;28;20503;-56
2021/06/24 07:47:28;;;;;;;12.23;7.73;;;;;;;;;;5032826;28;20595;-56
2021/06/24 07:49:55;;;;;;;12.30;7.80;;;;;;;;;;5032734;28;20448;-57
2021/06/24 07:52:24;;;;;;;7.80;6.70;;;;;;;;;;5032716;28;20448;-57
2021/06/24 07:54:51;;;;;;;7.63;6.63;;;;;;;;;;5032792;28;20612;-58
2021/06/24 07:57:18;;;;;;;20.13;8.53;;;;;;;;;;5032688;28;20499;-58
2021/06/24 07:59:46;;;;;;;9.13;7.03;;;;;;;;;;5032631;28;20773;-58
2021/06/24 08:02:13;;;;;;;10.40;7.70;;;;;;;;;;5032678;28;20495;-58
2021/06/24 08:04:41;;;;;;;11.23;7.90;;;;;;;;;;5032906;28;20495;-58
2021/06/24 08:07:10;;;;;;;9.77;7.90;;;;;;;;;;5032713;28;20441;-58
2021/06/24 08:09:38;;;;;;;8.90;7.93;;;;;;;;;;5032791;28;20567;-57
2021/06/24 08:12:06;;;;;;;7.70;7.00;;;;;;;;;;5032934;28;20441;-59
2021/06/24 08:14:33;;;;;;;10.90;8.20;;;;;;;;;;5032656;28;20433;-58
2021/06/24 08:17:01;;;;;;;11.70;8.30;;;;;;;;;;5032495;28;20441;-57
2021/06/24 08:19:28;;;;;;;10.57;7.43;;;;;;;;;;5032755;28;20518;-56
2021/06/24 08:21:59;;;;;;;10.20;7.23;;;;;;;;;;5032483;28;20491;-57
2021/06/24 08:24:26;;;;;;;8.10;7.30;;;;;;;;;;5032873;28;20469;-57
2021/06/24 08:26:55;;;;;;;9.37;7.00;;;;;;;;;;5032415;28;20452;-57
2021/06/24 08:29:22;;;;;;;12.83;7.17;;;;;;;;;;5032557;28;20481;-58
2021/06/24 08:31:49;;;;;;;10.53;7.10;;;;;;;;;;5032612;28;20865;-58
2021/06/24 08:34:16;;;;;;;7.97;6.97;;;;;;;;;;5032316;28;20449;-57
2021/06/24 08:36:44;;;;;;;9.97;7.20;;;;;;;;;;5031989;28;20499;-57
2021/06/24 08:39:11;;;;;;;10.40;6.80;;;;;;;;;;5032338;28;20527;-56
2021/06/24 08:41:38;;;;;;;9.30;7.30;;;;;;;;;;5032110;28;20445;-55
2021/06/24 08:44:08;;;;;;;6.90;6.20;;;;;;;;;;5032409;28;20559;-56
2021/06/24 08:46:35;;;;;;;8.20;5.97;;;;;;;;;;5032107;28;20456;-56
2021/06/24 08:49:03;;;;;;;8.07;6.57;;;;;;;;;;5032341;28;20485;-54
2021/06/24 08:51:31;;;;;;;6.83;5.43;;;;;;;;;;5031758;28;20455;-56
2021/06/24 08:54:00;;;;;;;8.83;5.80;;;;;;;;;;5034346;28;20448;-55
2021/06/24 08:56:27;;;;;;;6.57;5.70;;;;;;;;;;5036029;28;20441;-57
2021/06/24 08:58:56;;;;;;;8.83;6.07;;;;;;;;;;5035852;28;20485;-57
2021/06/24 09:01:46;;;;;;;8.20;6.10;;;;;;;;;;5036098;28;20511;-57
2021/06/24 09:04:14;;;;;;;13.57;6.53;;;;;;;;;;5035934;28;20437;-56
2021/06/24 09:06:42;;;;;;;7.93;5.90;;;;;;;;;;5036016;28;20449;-56
2021/06/24 09:09:09;;;;;;;6.60;5.57;;;;;;;;;;5035873;28;20541;-56
2021/06/24 09:11:36;;;;;;;7.00;5.43;;;;;;;;;;5035705;28;20518;-56
2021/06/24 09:14:04;;;;;;;6.00;4.80;;;;;;;;;;5035637;28;20520;-53
2021/06/24 09:16:34;;;;;;;6.53;4.87;;;;;;;;;;5035851;28;20478;-54
2021/06/24 09:19:17;;;;;;;8.27;4.77;;;;;;;;;;5035743;28;20475;-55
2021/06/24 09:21:45;;;;;;;6.30;4.83;;;;;;;;;;5035591;28;20460;-57
2021/06/24 09:24:23;;;;;;;5.47;4.70;;;;;;;;;;5035714;28;20447;-55
2021/06/24 09:26:50;;;;;;;8.57;4.83;;;;;;;;;;5035778;28;20447;-57
2021/06/24 09:29:18;;;;;;;9.13;5.10;;;;;;;;;;5035099;28;21017;-57
2021/06/24 09:31:49;;;;;;;5.20;4.37;;;;;;;;;;5035458;28;20451;-57
2021/06/24 09:34:17;;;;;;;8.97;5.70;;;;;;;;;;5035428;28;20425;-56
2021/06/24 09:36:46;;;;;;;6.60;4.30;;;;;;;;;;5035228;28;20532;-57
2021/06/24 09:39:24;;;;;;;7.10;5.07;;;;;;;;;;5034906;28;20475;-57
2021/06/24 09:41:57;;;;;;;9.10;6.30;;;;;;;;;;5035071;28;20448;-57
2021/06/24 09:44:24;;;;;;;7.00;4.80;;;;;;;;;;5035429;28;20432;-57
2021/06/24 09:46:53;;;;;;;6.53;4.67;;;;;;;;;;5035844;28;20548;-57
2021/06/24 09:49:27;;;;;;;6.17;5.00;;;;;;;;;;5034604;28;20488;-57
2021/06/24 09:51:56;;;;;;;6.33;4.60;;;;;;;;;;5035333;28;20478;-56
2021/06/24 09:54:31;;;;;;;6.03;5.53;;;;;;;;;;5035802;28;20482;-55
2021/06/24 09:56:58;;;;;;;4.50;4.10;;;;;;;;;;5036598;28;20431;-55
2021/06/24 09:59:31;;;;;;;5.27;4.70;;;;;;;;;;5035487;28;20480;-55
2021/06/24 10:02:06;;;;;;;7.93;5.50;;;;;;;;;;5034811;28;20447;-53
2021/06/24 10:04:33;;;;;;;5.67;4.80;;;;;;;;;;5035278;28;20431;-56
2021/06/24 10:07:01;;;;;;;12.33;5.40;;;;;;;;;;5035766;28;20469;-56
2021/06/24 10:09:29;;;;;;;5.67;4.50;;;;;;;;;;5035475;28;20947;-57
2021/06/24 10:11:56;;;;;;;6.07;4.37;;;;;;;;;;5034601;28;20824;-56
2021/06/24 10:14:24;;;;;;;8.03;5.23;;;;;;;;;;5035452;28;20452;-57
2021/06/24 10:16:52;;;;;;;4.47;4.07;;;;;;;;;;5035319;28;20452;-56
2021/06/24 10:19:24;;;;;;;6.80;4.40;;;;;;;;;;5035142;28;20519;-55
2021/06/24 10:21:53;;;;;;;6.23;4.53;;;;;;;;;;5035202;28;20438;-55
2021/06/24 10:24:22;;;;;;;6.47;5.00;;;;;;;;;;5034602;28;20859;-56
2021/06/24 10:26:52;;;;;;;5.30;4.00;;;;;;;;;;5035212;28;20496;-54
2021/06/24 10:29:20;;;;;;;8.50;5.03;;;;;;;;;;5035545;28;20916;-56
2021/06/24 10:31:48;;;;;;;5.33;4.27;;;;;;;;;;5034781;28;20512;-58
2021/06/24 10:34:15;;;;;;;4.70;4.07;;;;;;;;;;5034519;28;20458;-56
2021/06/24 10:37:11;;;;;;;5.10;3.97;;;;;;;;;;5033561;28;20458;-57
2021/06/24 10:39:39;;;;;;;8.07;4.70;;;;;;;;;;5033653;28;20970;-55
2021/06/24 10:42:09;;;;;;;6.37;4.70;;;;;;;;;;5033944;28;20462;-54
2021/06/24 10:44:49;;;;;;;5.30;4.33;;;;;;;;;;5033648;28;20454;-56
2021/06/24 10:47:26;;;;;;;6.57;4.37;;;;;;;;;;5034020;28;20472;-55
2021/06/24 10:49:53;;;;;;;4.97;4.07;;;;;;;;;;5033524;28;20868;-56
2021/06/24 10:52:26;;;;;;;7.10;5.87;;;;;;;;;;5033618;28;20837;-55
2021/06/24 10:54:53;;;;;;;4.83;4.30;;;;;;;;;;5033648;28;20535;-55
2021/06/24 10:57:31;;;;;;;4.97;4.03;;;;;;;;;;5032940;28;20560;-55
2021/06/24 11:00:28;;;;;;;5.47;4.47;;;;;;;;;;5064397;22;20496;-61
2021/06/24 11:02:56;;;;;;;8.67;5.23;;;;;;;;;;5033740;28;20463;-63
2021/06/24 11:05:24;;;;;;;10.50;4.80;;;;;;;;;;5033490;28;20538;-63
2021/06/24 11:07:54;;;;;;;5.83;3.90;;;;;;;;;;5033610;28;20454;-64
2021/06/24 11:10:24;;;;;;;4.67;4.17;;;;;;;;;;5014756;28;20521;-63
2021/06/24 11:12:53;;;;;;;5.60;4.97;;;;;;;;;;5014001;28;20575;-62
2021/06/24 11:15:47;;;;;;;5.00;3.87;;;;;;;;;;5013761;28;20456;-63
2021/06/24 11:18:32;;;;;;;7.60;4.73;;;;;;;;;;4989615;28;20908;-62
2021/06/24 11:21:01;;;;;;;6.43;4.60;;;;;;;;;;5013474;28;20451;-62
2021/06/24 11:23:30;;;;;;;4.90;4.43;;;;;;;;;;5013621;28;20443;-61
2021/06/24 11:26:04;;;;;;;5.57;5.03;;;;;;;;;;5013784;28;20446;-61
2021/06/24 11:28:43;;;;;;;6.60;5.13;;;;;;;;;;5013688;28;20918;-63
2021/06/24 11:31:12;;;;;;;6.20;4.70;;;;;;;;;;5013823;28;20494;-63
2021/06/24 11:33:44;;;;;;;5.13;4.00;;;;;;;;;;5013681;28;20460;-64
2021/06/24 11:36:14;;;;;;;7.97;5.17;;;;;;;;;;5014081;28;20440;-63
2021/06/24 11:38:47;;;;;;;6.70;4.87;;;;;;;;;;5013335;28;20473;-63
2021/06/24 11:41:14;;;;;;;5.73;4.77;;;;;;;;;;5013192;28;20450;-61
2021/06/24 11:43:57;;;;;;;5.93;4.80;;;;;;;;;;5013557;28;20503;-61
2021/06/24 11:46:25;;;;;;;5.40;4.00;;;;;;;;;;5014002;28;20473;-61
2021/06/24 11:48:55;;;;;;;6.60;4.77;;;;;;;;;;5013399;28;20500;-62
2021/06/24 12:05:16;;;;;;;6.60;4.80;;;;;;;;;;5013375;28;20409;-62
2021/06/24 12:07:44;;;;;;;5.97;4.40;;;;;;;;;;5012860;28;20948;-62
2021/06/24 12:10:21;;;;;;;6.93;4.20;;;;;;;;;;5013032;28;21051;-62
2021/06/24 12:12:48;;;;;;;5.90;4.20;;;;;;;;;;5013800;28;20504;-62
2021/06/24 12:15:16;;;;;;;5.10;4.30;;;;;;;;;;5013421;28;20456;-62
2021/06/24 12:17:43;;;;;;;5.83;5.00;;;;;;;;;;5013538;28;20457;-61
2021/06/24 12:20:12;;;;;;;7.00;4.90;;;;;;;;;;5013465;28;20469;-62
2021/06/24 12:22:42;;;;;;;8.13;5.77;;;;;;;;;;5013503;28;20450;-62
2021/06/24 12:25:10;;;;;;;6.23;5.37;;;;;;;;;;5013385;28;20452;-62
2021/06/24 12:27:40;;;;;;;6.87;5.23;;;;;;;;;;5014038;28;20452;-60
2021/06/24 12:30:09;;;;;;;6.57;4.80;;;;;;;;;;5017562;28;20487;-63
2021/06/24 12:32:37;;;;;;;5.73;5.10;;;;;;;;;;5017109;28;20443;-63
2021/06/24 12:35:04;;;;;;;5.03;3.93;;;;;;;;;;5017367;28;20453;-63
2021/06/24 12:37:36;;;;;;;4.97;4.40;;;;;;;;;;5016876;28;20451;-59
2021/06/24 12:40:06;;;;;;;5.77;5.27;;;;;;;;;;5016745;28;20886;-62
2021/06/24 12:42:33;;;;;;;5.07;4.57;;;;;;;;;;5017180;28;20621;-61
2021/06/24 12:45:02;;;;;;;6.07;4.60;;;;;;;;;;5017926;28;20466;-62
2021/06/24 12:47:38;;;;;;;7.07;5.13;;;;;;;;;;5017262;28;20439;-62
2021/06/24 12:50:12;;;;;;;6.53;6.00;;;;;;;;;;5018231;28;20478;-61
2021/06/24 12:52:45;;;;;;;5.70;5.20;;;;;;;;;;5019187;28;20923;-62
2021/06/24 12:55:27;;;;;;;6.00;5.47;;;;;;;;;;5018580;28;20485;-62
2021/06/24 12:57:55;;;;;;;6.53;5.57;;;;;;;;;;5017350;28;20447;-63
2021/06/24 13:00:27;;;;;;;8.37;7.60;;;;;;;;;;5016821;28;20499;-63
2021/06/24 13:02:54;;;;;;;8.90;8.07;;;;;;;;;;5016469;28;20485;-62
2021/06/24 13:05:25;;;;;;;7.43;6.73;;;;;;;;;;5015871;28;20559;-60
2021/06/24 13:08:03;;;;;;;7.73;7.10;;;;;;;;;;5016273;28;20827;-61
2021/06/24 13:10:30;;;;;;;9.33;7.97;;;;;;;;;;5016865;28;20475;-61
2021/06/24 13:12:58;;;;;;;11.50;8.80;;;;;;;;;;5015774;28;20443;-61
2021/06/24 13:15:34;;;;;;;9.60;8.07;;;;;;;;;;5015709;28;20454;-61
2021/06/24 13:18:01;;;;;;;9.13;8.23;;;;;;;;;;5016191;28;20454;-61
2021/06/24 13:20:28;;;;;;;8.10;7.20;;;;;;;;;;5015974;28;20502;-61
2021/06/24 13:23:09;;;;;;;7.60;6.70;;;;;;;;;;5015926;28;20930;-61
2021/06/24 13:25:42;;;;;;;8.90;8.00;;;;;;;;;;5016126;28;20449;-62
2021/06/24 13:28:09;;;;;;;8.27;7.37;;;;;;;;;;5015943;28;20433;-62
2021/06/24 13:30:40;;;;;;;7.80;7.20;;;;;;;;;;5016254;28;20487;-63
2021/06/24 13:33:07;;;;;;;9.37;8.20;;;;;;;;;;5015891;28;20459;-62
2021/06/24 13:35:35;;;;;;;11.10;8.00;;;;;;;;;;5016128;28;20502;-62
2021/06/24 13:38:03;;;;;;;9.53;8.67;;;;;;;;;;5015750;28;20467;-61
2021/06/24 13:40:31;;;;;;;9.17;8.37;;;;;;;;;;5015529;28;20499;-63
2021/06/24 13:42:59;;;;;;;10.07;8.40;;;;;;;;;;5015699;28;20957;-63
2021/06/24 13:45:26;;;;;;;13.37;9.70;;;;;;;;;;5017176;28;20458;-62
2021/06/24 13:47:55;;;;;;;12.23;10.30;;;;;;;;;;5015858;28;20452;-62
2021/06/24 13:50:22;;;;;;;11.90;9.17;;;;;;;;;;5015486;28;21002;-62
2021/06/24 13:52:50;;;;;;;10.27;8.93;;;;;;;;;;5015299;28;20506;-62
2021/06/24 13:55:17;;;;;;;9.50;8.53;;;;;;;;;;5015835;28;20548;-61
2021/06/24 13:57:44;;;;;;;9.47;7.10;;;;;;;;;;5015351;28;20508;-63
2021/06/24 14:00:12;;;;;;;7.80;7.10;;;;;;;;;;5015288;28;20488;-63
2021/06/24 14:02:39;;;;;;;9.03;6.60;;;;;;;;;;5015838;28;20451;-62
2021/06/24 14:05:09;;;;;;;6.10;5.50;;;;;;;;;;5015239;28;20446;-63
2021/06/24 14:07:36;;;;;;;6.93;6.30;;;;;;;;;;5015663;28;20877;-63
2021/06/24 14:10:03;;;;;;;8.90;7.90;;;;;;;;;;5016286;28;20494;-63
2021/06/24 14:12:31;;;;;;;8.53;7.63;;;;;;;;;;5016031;28;20442;-63
2021/06/24 14:14:58;;;;;;;23.30;8.40;;;;;;;;;;5014954;28;20449;-63
2021/06/24 14:17:25;;;;;;;7.13;6.30;;;;;;;;;;5015198;28;20447;-64
2021/06/24 14:19:53;;;;;;;7.13;6.00;;;;;;;;;;5014803;28;20532;-62
2021/06/24 14:22:21;;;;;;;6.13;5.63;;;;;;;;;;5015138;28;20613;-62
2021/06/24 14:24:48;;;;;;;9.47;5.60;;;;;;;;;;5015012;28;20451;-61
2021/06/24 14:27:16;;;;;;;5.57;5.07;;;;;;;;;;5015818;28;20450;-62
2021/06/24 14:29:43;;;;;;;6.10;5.17;;;;;;;;;;5016858;28;20490;-61
2021/06/24 14:32:10;;;;;;;7.03;5.80;;;;;;;;;;5016798;28;20558;-62
2021/06/24 14:34:37;;;;;;;6.30;5.70;;;;;;;;;;5016584;28;20450;-62
2021/06/24 14:37:07;;;;;;;6.57;5.73;;;;;;;;;;5016320;28;20454;-63
2021/06/24 14:39:36;;;;;;;7.60;5.93;;;;;;;;;;5016933;28;20466;-63
2021/06/24 14:42:03;;;;;;;7.23;5.40;;;;;;;;;;5015239;28;20450;-62
2021/06/24 14:44:31;;;;;;;8.27;5.70;;;;;;;;;;5015783;28;20786;-64
2021/06/24 14:46:58;;;;;;;8.60;6.13;;;;;;;;;;5014960;28;20826;-62
2021/06/24 14:49:28;;;;;;;10.23;5.63;;;;;;;;;;5016368;28;20494;-62
2021/06/24 14:51:55;;;;;;;7.33;5.30;;;;;;;;;;5015267;28;20460;-62
2021/06/24 14:54:33;;;;;;;6.47;5.73;;;;;;;;;;5017681;28;20525;-63
2021/06/24 14:57:02;;;;;;;10.60;6.70;;;;;;;;;;5019113;28;20435;-62
2021/06/24 14:59:29;;;;;;;6.97;5.47;;;;;;;;;;5017157;28;20496;-63
2021/06/24 15:01:57;;;;;;;9.10;5.43;;;;;;;;;;5017916;28;20448;-61